sensor_id;sensor_type;location;lat;lon;timestamp;P1;durP1;ratioP1;P2;durP2;ratioP2
18076;SDS011;9165;45.714;11.362;2024-02-04T00:00:10;45.83;;;25.53;;
18076;SDS011;9165;45.714;11.362;2024-02-04T00:02:38;41.60;;;26.43;;
18076;SDS011;9165;45.714;11.362;2024-02-04T00:05:06;52.63;;;26.60;;
18076;SDS011;9165;45.714;11.362;2024-02-04T00:07:33;45.73;;;26.57;;
18076;SDS011;9165;45.714;11.362;2024-02-04T00:09:59;48.63;;;27.07;;
18076;SDS011;9165;45.714;11.362;2024-02-04T00:12:26;48.80;;;26.57;;
18076;SDS011;9165;45.714;11.362;2024-02-04T00:14:53;48.47;;;28.20;;
18076;SDS011;9165;45.714;11.362;2024-02-04T00:17:19;45.37;;;24.80;;
18076;SDS011;9165;45.714;11.362;2024-02-04T00:19:46;46.30;;;27.53;;
18076;SDS011;9165;45.714;11.362;2024-02-04T00:22:14;43.03;;;24.57;;
18076;SDS011;9165;45.714;11.362;2024-02-04T00:24:43;48.27;;;27.60;;
18076;SDS011;9165;45.714;11.362;2024-02-04T00:27:10;50.13;;;27.30;;
18076;SDS011;9165;45.714;11.362;2024-02-04T00:29:36;50.67;;;26.47;;
18076;SDS011;9165;45.714;11.362;2024-02-04T00:32:03;43.27;;;25.87;;
18076;SDS011;9165;45.714;11.362;2024-02-04T00:34:30;47.80;;;26.70;;
18076;SDS011;9165;45.714;11.362;2024-02-04T00:36:56;47.23;;;26.37;;
18076;SDS011;9165;45.714;11.362;2024-02-04T00:39:24;47.37;;;26.30;;
18076;SDS011;9165;45.714;11.362;2024-02-04T00:41:51;48.70;;;26.77;;
18076;SDS011;9165;45.714;11.362;2024-02-04T00:44:17;45.50;;;24.97;;
18076;SDS011;9165;45.714;11.362;2024-02-04T00:46:44;48.07;;;26.07;;
18076;SDS011;9165;45.714;11.362;2024-02-04T00:49:10;44.47;;;25.67;;
18076;SDS011;9165;45.714;11.362;2024-02-04T00:51:37;53.43;;;25.77;;
18076;SDS011;9165;45.714;11.362;2024-02-04T00:54:03;45.30;;;25.67;;
18076;SDS011;9165;45.714;11.362;2024-02-04T00:56:31;46.10;;;26.53;;
18076;SDS011;9165;45.714;11.362;2024-02-04T00:58:58;45.10;;;26.63;;
18076;SDS011;9165;45.714;11.362;2024-02-04T01:01:25;46.13;;;23.60;;
18076;SDS011;9165;45.714;11.362;2024-02-04T01:03:51;42.33;;;25.87;;
18076;SDS011;9165;45.714;11.362;2024-02-04T01:06:18;48.20;;;24.60;;
18076;SDS011;9165;45.714;11.362;2024-02-04T01:08:44;43.63;;;26.90;;
18076;SDS011;9165;45.714;11.362;2024-02-04T01:11:11;52.10;;;25.23;;
18076;SDS011;9165;45.714;11.362;2024-02-04T01:13:39;45.73;;;24.73;;
18076;SDS011;9165;45.714;11.362;2024-02-04T01:16:05;46.77;;;24.93;;
18076;SDS011;9165;45.714;11.362;2024-02-04T01:18:32;41.90;;;25.23;;
18076;SDS011;9165;45.714;11.362;2024-02-04T01:20:58;46.97;;;26.40;;
18076;SDS011;9165;45.714;11.362;2024-02-04T01:23:25;49.43;;;25.80;;
18076;SDS011;9165;45.714;11.362;2024-02-04T01:25:52;44.27;;;25.27;;
18076;SDS011;9165;45.714;11.362;2024-02-04T01:28:18;46.63;;;25.87;;
18076;SDS011;9165;45.714;11.362;2024-02-04T01:30:46;50.10;;;27.77;;
18076;SDS011;9165;45.714;11.362;2024-02-04T01:33:13;48.20;;;25.13;;
18076;SDS011;9165;45.714;11.362;2024-02-04T01:35:39;41.30;;;24.10;;
18076;SDS011;9165;45.714;11.362;2024-02-04T01:38:06;42.93;;;24.53;;
18076;SDS011;9165;45.714;11.362;2024-02-04T01:40:32;45.43;;;25.90;;
18076;SDS011;9165;45.714;11.362;2024-02-04T01:42:59;49.53;;;24.83;;
18076;SDS011;9165;45.714;11.362;2024-02-04T01:45:25;49.53;;;26.53;;
18076;SDS011;9165;45.714;11.362;2024-02-04T01:47:53;45.03;;;25.57;;
18076;SDS011;9165;45.714;11.362;2024-02-04T01:50:20;43.57;;;25.67;;
18076;SDS011;9165;45.714;11.362;2024-02-04T01:52:47;51.20;;;26.00;;
18076;SDS011;9165;45.714;11.362;2024-02-04T01:55:13;51.50;;;27.67;;
18076;SDS011;9165;45.714;11.362;2024-02-04T01:57:40;48.87;;;27.13;;
18076;SDS011;9165;45.714;11.362;2024-02-04T02:00:07;48.97;;;26.90;;
18076;SDS011;9165;45.714;11.362;2024-02-04T02:02:37;45.30;;;25.70;;
18076;SDS011;9165;45.714;11.362;2024-02-04T02:05:07;47.00;;;25.57;;
18076;SDS011;9165;45.714;11.362;2024-02-04T02:07:34;46.57;;;27.37;;
18076;SDS011;9165;45.714;11.362;2024-02-04T02:10:01;42.83;;;24.60;;
18076;SDS011;9165;45.714;11.362;2024-02-04T02:12:31;50.00;;;26.33;;
18076;SDS011;9165;45.714;11.362;2024-02-04T02:15:02;48.77;;;24.70;;
18076;SDS011;9165;45.714;11.362;2024-02-04T02:17:35;46.57;;;25.47;;
18076;SDS011;9165;45.714;11.362;2024-02-04T02:20:08;44.80;;;24.87;;
18076;SDS011;9165;45.714;11.362;2024-02-04T02:22:38;44.23;;;24.57;;
18076;SDS011;9165;45.714;11.362;2024-02-04T02:25:07;48.37;;;25.37;;
18076;SDS011;9165;45.714;11.362;2024-02-04T02:27:33;45.33;;;26.47;;
18076;SDS011;9165;45.714;11.362;2024-02-04T02:30:00;43.37;;;24.23;;
18076;SDS011;9165;45.714;11.362;2024-02-04T02:32:27;49.03;;;23.50;;
18076;SDS011;9165;45.714;11.362;2024-02-04T02:34:53;46.93;;;25.40;;
18076;SDS011;9165;45.714;11.362;2024-02-04T02:37:22;47.67;;;24.47;;
18076;SDS011;9165;45.714;11.362;2024-02-04T02:39:49;41.90;;;24.13;;
18076;SDS011;9165;45.714;11.362;2024-02-04T02:42:21;41.37;;;22.50;;
18076;SDS011;9165;45.714;11.362;2024-02-04T02:44:48;41.77;;;24.47;;
18076;SDS011;9165;45.714;11.362;2024-02-04T02:47:16;43.70;;;24.50;;
18076;SDS011;9165;45.714;11.362;2024-02-04T02:49:43;45.97;;;24.10;;
18076;SDS011;9165;45.714;11.362;2024-02-04T02:52:10;44.70;;;25.17;;
18076;SDS011;9165;45.714;11.362;2024-02-04T02:54:36;46.63;;;24.33;;
18076;SDS011;9165;45.714;11.362;2024-02-04T02:57:03;40.73;;;24.93;;
18076;SDS011;9165;45.714;11.362;2024-02-04T02:59:31;44.53;;;23.67;;
18076;SDS011;9165;45.714;11.362;2024-02-04T03:01:57;41.00;;;22.53;;
18076;SDS011;9165;45.714;11.362;2024-02-04T03:04:24;49.67;;;26.07;;
18076;SDS011;9165;45.714;11.362;2024-02-04T03:06:50;47.60;;;25.60;;
18076;SDS011;9165;45.714;11.362;2024-02-04T03:09:17;45.90;;;25.20;;
18076;SDS011;9165;45.714;11.362;2024-02-04T03:11:43;45.73;;;25.80;;
18076;SDS011;9165;45.714;11.362;2024-02-04T03:14:11;47.50;;;26.57;;
18076;SDS011;9165;45.714;11.362;2024-02-04T03:16:39;41.73;;;24.47;;
18076;SDS011;9165;45.714;11.362;2024-02-04T03:19:05;42.63;;;24.07;;
18076;SDS011;9165;45.714;11.362;2024-02-04T03:21:32;47.77;;;25.53;;
18076;SDS011;9165;45.714;11.362;2024-02-04T03:23:58;43.73;;;25.60;;
18076;SDS011;9165;45.714;11.362;2024-02-04T03:26:25;46.40;;;25.07;;
18076;SDS011;9165;45.714;11.362;2024-02-04T03:28:51;47.10;;;23.73;;
18076;SDS011;9165;45.714;11.362;2024-02-04T03:31:21;46.00;;;24.40;;
18076;SDS011;9165;45.714;11.362;2024-02-04T03:33:49;47.70;;;24.70;;
18076;SDS011;9165;45.714;11.362;2024-02-04T03:36:18;43.67;;;23.70;;
18076;SDS011;9165;45.714;11.362;2024-02-04T03:38:44;42.43;;;23.27;;
18076;SDS011;9165;45.714;11.362;2024-02-04T03:41:11;42.50;;;23.80;;
18076;SDS011;9165;45.714;11.362;2024-02-04T03:43:38;45.63;;;25.00;;
18076;SDS011;9165;45.714;11.362;2024-02-04T03:46:04;41.27;;;23.87;;
18076;SDS011;9165;45.714;11.362;2024-02-04T03:48:31;46.13;;;24.00;;
18076;SDS011;9165;45.714;11.362;2024-02-04T03:51:00;43.10;;;23.63;;
18076;SDS011;9165;45.714;11.362;2024-02-04T03:53:26;44.17;;;23.20;;
18076;SDS011;9165;45.714;11.362;2024-02-04T03:55:53;42.57;;;24.87;;
18076;SDS011;9165;45.714;11.362;2024-02-04T03:58:19;46.17;;;24.47;;
18076;SDS011;9165;45.714;11.362;2024-02-04T04:00:54;39.70;;;22.90;;
18076;SDS011;9165;45.714;11.362;2024-02-04T04:03:20;41.47;;;23.03;;
18076;SDS011;9165;45.714;11.362;2024-02-04T04:05:47;46.20;;;24.53;;
18076;SDS011;9165;45.714;11.362;2024-02-04T04:08:15;39.17;;;20.77;;
18076;SDS011;9165;45.714;11.362;2024-02-04T04:10:43;48.27;;;24.93;;
18076;SDS011;9165;45.714;11.362;2024-02-04T04:13:10;43.17;;;23.67;;
18076;SDS011;9165;45.714;11.362;2024-02-04T04:15:36;47.00;;;25.13;;
18076;SDS011;9165;45.714;11.362;2024-02-04T04:18:03;43.43;;;22.70;;
18076;SDS011;9165;45.714;11.362;2024-02-04T04:20:30;41.03;;;23.07;;
18076;SDS011;9165;45.714;11.362;2024-02-04T04:22:57;39.73;;;23.40;;
18076;SDS011;9165;45.714;11.362;2024-02-04T04:25:25;39.57;;;23.83;;
18076;SDS011;9165;45.714;11.362;2024-02-04T04:27:51;41.30;;;24.27;;
18076;SDS011;9165;45.714;11.362;2024-02-04T04:30:18;45.37;;;23.90;;
18076;SDS011;9165;45.714;11.362;2024-02-04T04:32:44;45.40;;;22.43;;
18076;SDS011;9165;45.714;11.362;2024-02-04T04:35:11;39.70;;;23.23;;
18076;SDS011;9165;45.714;11.362;2024-02-04T04:37:37;42.53;;;23.43;;
18076;SDS011;9165;45.714;11.362;2024-02-04T04:40:04;44.33;;;23.87;;
18076;SDS011;9165;45.714;11.362;2024-02-04T04:42:32;41.20;;;23.47;;
18076;SDS011;9165;45.714;11.362;2024-02-04T04:44:59;43.57;;;23.70;;
18076;SDS011;9165;45.714;11.362;2024-02-04T04:47:26;42.17;;;21.73;;
18076;SDS011;9165;45.714;11.362;2024-02-04T04:49:52;40.30;;;23.03;;
18076;SDS011;9165;45.714;11.362;2024-02-04T04:52:19;41.63;;;23.07;;
18076;SDS011;9165;45.714;11.362;2024-02-04T04:54:45;37.37;;;22.40;;
18076;SDS011;9165;45.714;11.362;2024-02-04T04:57:12;43.70;;;23.20;;
18076;SDS011;9165;45.714;11.362;2024-02-04T04:59:40;44.07;;;23.13;;
18076;SDS011;9165;45.714;11.362;2024-02-04T05:02:07;43.00;;;22.17;;
18076;SDS011;9165;45.714;11.362;2024-02-04T05:04:33;43.70;;;22.60;;
18076;SDS011;9165;45.714;11.362;2024-02-04T05:07:00;40.27;;;22.90;;
18076;SDS011;9165;45.714;11.362;2024-02-04T05:09:26;40.23;;;22.40;;
18076;SDS011;9165;45.714;11.362;2024-02-04T05:11:53;38.83;;;22.63;;
18076;SDS011;9165;45.714;11.362;2024-02-04T05:14:19;43.53;;;22.87;;
18076;SDS011;9165;45.714;11.362;2024-02-04T05:16:48;37.97;;;21.37;;
18076;SDS011;9165;45.714;11.362;2024-02-04T05:19:14;43.30;;;21.70;;
18076;SDS011;9165;45.714;11.362;2024-02-04T05:21:41;43.20;;;21.43;;
18076;SDS011;9165;45.714;11.362;2024-02-04T05:24:07;37.27;;;21.40;;
18076;SDS011;9165;45.714;11.362;2024-02-04T05:26:34;46.50;;;23.73;;
18076;SDS011;9165;45.714;11.362;2024-02-04T05:29:00;39.87;;;19.80;;
18076;SDS011;9165;45.714;11.362;2024-02-04T05:31:27;40.67;;;19.90;;
18076;SDS011;9165;45.714;11.362;2024-02-04T05:33:55;40.07;;;21.53;;
18076;SDS011;9165;45.714;11.362;2024-02-04T05:36:22;42.90;;;21.87;;
18076;SDS011;9165;45.714;11.362;2024-02-04T05:38:48;38.93;;;21.70;;
18076;SDS011;9165;45.714;11.362;2024-02-04T05:41:15;46.80;;;21.27;;
18076;SDS011;9165;45.714;11.362;2024-02-04T05:43:42;35.93;;;20.00;;
18076;SDS011;9165;45.714;11.362;2024-02-04T05:46:08;40.53;;;21.43;;
18076;SDS011;9165;45.714;11.362;2024-02-04T05:48:35;39.73;;;21.90;;
18076;SDS011;9165;45.714;11.362;2024-02-04T05:51:02;40.57;;;20.63;;
18076;SDS011;9165;45.714;11.362;2024-02-04T05:53:29;40.90;;;21.93;;
18076;SDS011;9165;45.714;11.362;2024-02-04T05:55:55;39.00;;;21.60;;
18076;SDS011;9165;45.714;11.362;2024-02-04T05:58:22;38.57;;;20.40;;
18076;SDS011;9165;45.714;11.362;2024-02-04T06:00:49;41.63;;;20.70;;
18076;SDS011;9165;45.714;11.362;2024-02-04T06:03:15;40.03;;;20.57;;
18076;SDS011;9165;45.714;11.362;2024-02-04T06:05:42;35.50;;;20.73;;
18076;SDS011;9165;45.714;11.362;2024-02-04T06:08:09;37.07;;;20.33;;
18076;SDS011;9165;45.714;11.362;2024-02-04T06:10:36;36.10;;;20.30;;
18076;SDS011;9165;45.714;11.362;2024-02-04T06:13:03;39.97;;;20.77;;
18076;SDS011;9165;45.714;11.362;2024-02-04T06:15:29;35.63;;;21.27;;
18076;SDS011;9165;45.714;11.362;2024-02-04T06:17:56;41.80;;;19.50;;
18076;SDS011;9165;45.714;11.362;2024-02-04T06:20:22;40.13;;;21.07;;
18076;SDS011;9165;45.714;11.362;2024-02-04T06:22:49;39.30;;;21.50;;
18076;SDS011;9165;45.714;11.362;2024-02-04T06:25:16;40.57;;;20.67;;
18076;SDS011;9165;45.714;11.362;2024-02-04T06:27:43;40.90;;;21.07;;
18076;SDS011;9165;45.714;11.362;2024-02-04T06:30:10;38.60;;;20.40;;
18076;SDS011;9165;45.714;11.362;2024-02-04T06:32:37;40.43;;;21.13;;
18076;SDS011;9165;45.714;11.362;2024-02-04T06:35:04;42.23;;;22.97;;
18076;SDS011;9165;45.714;11.362;2024-02-04T06:37:30;37.70;;;19.83;;
18076;SDS011;9165;45.714;11.362;2024-02-04T06:39:57;34.93;;;20.87;;
18076;SDS011;9165;45.714;11.362;2024-02-04T06:42:25;43.67;;;21.37;;
18076;SDS011;9165;45.714;11.362;2024-02-04T06:44:51;39.53;;;19.90;;
18076;SDS011;9165;45.714;11.362;2024-02-04T06:47:18;39.60;;;20.27;;
18076;SDS011;9165;45.714;11.362;2024-02-04T06:49:44;41.17;;;20.63;;
18076;SDS011;9165;45.714;11.362;2024-02-04T06:52:11;33.43;;;18.93;;
18076;SDS011;9165;45.714;11.362;2024-02-04T06:54:38;39.10;;;21.00;;
18076;SDS011;9165;45.714;11.362;2024-02-04T06:57:04;38.97;;;20.67;;
18076;SDS011;9165;45.714;11.362;2024-02-04T06:59:32;35.37;;;19.07;;
18076;SDS011;9165;45.714;11.362;2024-02-04T07:01:58;42.07;;;19.73;;
18076;SDS011;9165;45.714;11.362;2024-02-04T07:04:25;39.60;;;20.93;;
18076;SDS011;9165;45.714;11.362;2024-02-04T07:06:51;44.50;;;19.80;;
18076;SDS011;9165;45.714;11.362;2024-02-04T07:09:18;35.97;;;19.57;;
18076;SDS011;9165;45.714;11.362;2024-02-04T07:11:44;36.37;;;19.83;;
18076;SDS011;9165;45.714;11.362;2024-02-04T07:14:11;37.20;;;18.90;;
18076;SDS011;9165;45.714;11.362;2024-02-04T07:16:39;33.00;;;19.30;;
18076;SDS011;9165;45.714;11.362;2024-02-04T07:19:06;38.60;;;19.73;;
18076;SDS011;9165;45.714;11.362;2024-02-04T07:21:32;35.03;;;18.67;;
18076;SDS011;9165;45.714;11.362;2024-02-04T07:23:59;35.13;;;18.43;;
18076;SDS011;9165;45.714;11.362;2024-02-04T07:26:25;33.00;;;19.30;;
18076;SDS011;9165;45.714;11.362;2024-02-04T07:28:52;37.80;;;19.53;;
18076;SDS011;9165;45.714;11.362;2024-02-04T07:31:18;36.83;;;18.70;;
18076;SDS011;9165;45.714;11.362;2024-02-04T07:33:46;41.07;;;21.00;;
18076;SDS011;9165;45.714;11.362;2024-02-04T07:36:13;37.53;;;18.93;;
18076;SDS011;9165;45.714;11.362;2024-02-04T07:38:39;42.43;;;19.50;;
18076;SDS011;9165;45.714;11.362;2024-02-04T07:41:06;43.70;;;23.03;;
18076;SDS011;9165;45.714;11.362;2024-02-04T07:43:32;40.23;;;19.33;;
18076;SDS011;9165;45.714;11.362;2024-02-04T07:45:59;37.37;;;18.90;;
18076;SDS011;9165;45.714;11.362;2024-02-04T07:48:26;39.33;;;20.43;;
18076;SDS011;9165;45.714;11.362;2024-02-04T07:50:54;37.33;;;20.17;;
18076;SDS011;9165;45.714;11.362;2024-02-04T07:53:20;36.77;;;21.47;;
18076;SDS011;9165;45.714;11.362;2024-02-04T07:55:48;39.13;;;20.63;;
18076;SDS011;9165;45.714;11.362;2024-02-04T07:58:16;35.20;;;20.20;;
18076;SDS011;9165;45.714;11.362;2024-02-04T08:00:42;41.67;;;21.87;;
18076;SDS011;9165;45.714;11.362;2024-02-04T08:03:09;35.27;;;20.20;;
18076;SDS011;9165;45.714;11.362;2024-02-04T08:05:36;40.50;;;20.90;;
18076;SDS011;9165;45.714;11.362;2024-02-04T08:08:04;31.07;;;18.53;;
18076;SDS011;9165;45.714;11.362;2024-02-04T08:10:33;37.67;;;20.10;;
18076;SDS011;9165;45.714;11.362;2024-02-04T08:12:59;36.93;;;18.97;;
18076;SDS011;9165;45.714;11.362;2024-02-04T08:15:26;39.43;;;20.93;;
18076;SDS011;9165;45.714;11.362;2024-02-04T08:17:52;42.13;;;21.23;;
18076;SDS011;9165;45.714;11.362;2024-02-04T08:20:19;36.47;;;19.47;;
18076;SDS011;9165;45.714;11.362;2024-02-04T08:22:46;37.87;;;20.50;;
18076;SDS011;9165;45.714;11.362;2024-02-04T08:25:14;43.00;;;21.30;;
18076;SDS011;9165;45.714;11.362;2024-02-04T08:27:41;37.97;;;20.30;;
18076;SDS011;9165;45.714;11.362;2024-02-04T08:30:07;36.10;;;20.07;;
18076;SDS011;9165;45.714;11.362;2024-02-04T08:32:36;36.27;;;21.93;;
18076;SDS011;9165;45.714;11.362;2024-02-04T08:35:03;40.90;;;21.53;;
18076;SDS011;9165;45.714;11.362;2024-02-04T08:37:30;36.73;;;20.20;;
18076;SDS011;9165;45.714;11.362;2024-02-04T08:39:57;38.07;;;19.20;;
18076;SDS011;9165;45.714;11.362;2024-02-04T08:42:25;44.13;;;21.33;;
18076;SDS011;9165;45.714;11.362;2024-02-04T08:44:52;39.07;;;20.83;;
18076;SDS011;9165;45.714;11.362;2024-02-04T08:47:18;43.00;;;22.20;;
18076;SDS011;9165;45.714;11.362;2024-02-04T08:49:45;41.20;;;21.43;;
18076;SDS011;9165;45.714;11.362;2024-02-04T08:52:11;35.97;;;20.07;;
18076;SDS011;9165;45.714;11.362;2024-02-04T08:54:38;45.53;;;21.60;;
18076;SDS011;9165;45.714;11.362;2024-02-04T08:57:04;39.43;;;21.63;;
18076;SDS011;9165;45.714;11.362;2024-02-04T08:59:32;46.83;;;23.30;;
18076;SDS011;9165;45.714;11.362;2024-02-04T09:01:59;38.20;;;20.93;;
18076;SDS011;9165;45.714;11.362;2024-02-04T09:04:25;40.40;;;20.93;;
18076;SDS011;9165;45.714;11.362;2024-02-04T09:06:52;41.27;;;23.47;;
18076;SDS011;9165;45.714;11.362;2024-02-04T09:09:18;45.90;;;24.37;;
18076;SDS011;9165;45.714;11.362;2024-02-04T09:11:45;45.70;;;23.80;;
18076;SDS011;9165;45.714;11.362;2024-02-04T09:14:11;39.63;;;24.00;;
18076;SDS011;9165;45.714;11.362;2024-02-04T09:16:40;45.83;;;23.10;;
18076;SDS011;9165;45.714;11.362;2024-02-04T09:19:06;39.20;;;22.47;;
18076;SDS011;9165;45.714;11.362;2024-02-04T09:21:33;47.13;;;22.83;;
18076;SDS011;9165;45.714;11.362;2024-02-04T09:23:59;50.23;;;22.93;;
18076;SDS011;9165;45.714;11.362;2024-02-04T09:26:26;46.33;;;23.60;;
18076;SDS011;9165;45.714;11.362;2024-02-04T09:28:52;40.13;;;23.70;;
18076;SDS011;9165;45.714;11.362;2024-02-04T09:31:19;46.57;;;25.00;;
18076;SDS011;9165;45.714;11.362;2024-02-04T09:33:47;42.57;;;24.40;;
18076;SDS011;9165;45.714;11.362;2024-02-04T09:36:14;44.30;;;25.23;;
18076;SDS011;9165;45.714;11.362;2024-02-04T09:38:40;44.10;;;24.50;;
18076;SDS011;9165;45.714;11.362;2024-02-04T09:41:07;45.43;;;24.03;;
18076;SDS011;9165;45.714;11.362;2024-02-04T09:43:34;51.17;;;26.87;;
18076;SDS011;9165;45.714;11.362;2024-02-04T09:46:01;46.93;;;26.57;;
18076;SDS011;9165;45.714;11.362;2024-02-04T09:48:28;51.93;;;27.20;;
18076;SDS011;9165;45.714;11.362;2024-02-04T09:50:57;50.20;;;27.30;;
18076;SDS011;9165;45.714;11.362;2024-02-04T09:53:27;48.53;;;27.43;;
18076;SDS011;9165;45.714;11.362;2024-02-04T09:55:56;53.33;;;27.30;;
18076;SDS011;9165;45.714;11.362;2024-02-04T09:58:22;46.23;;;25.77;;
18076;SDS011;9165;45.714;11.362;2024-02-04T10:00:49;50.17;;;27.10;;
18076;SDS011;9165;45.714;11.362;2024-02-04T10:03:17;51.30;;;28.37;;
18076;SDS011;9165;45.714;11.362;2024-02-04T10:05:43;54.73;;;28.87;;
18076;SDS011;9165;45.714;11.362;2024-02-04T10:08:11;54.03;;;27.10;;
18076;SDS011;9165;45.714;11.362;2024-02-04T10:10:38;54.30;;;28.70;;
18076;SDS011;9165;45.714;11.362;2024-02-04T10:13:06;45.50;;;27.07;;
18076;SDS011;9165;45.714;11.362;2024-02-04T10:15:32;56.60;;;28.97;;
18076;SDS011;9165;45.714;11.362;2024-02-04T10:17:59;49.30;;;27.00;;
18076;SDS011;9165;45.714;11.362;2024-02-04T10:20:26;47.63;;;26.63;;
18076;SDS011;9165;45.714;11.362;2024-02-04T10:22:53;47.00;;;27.17;;
18076;SDS011;9165;45.714;11.362;2024-02-04T10:25:21;47.87;;;27.03;;
18076;SDS011;9165;45.714;11.362;2024-02-04T10:27:48;45.73;;;25.43;;
18076;SDS011;9165;45.714;11.362;2024-02-04T10:30:14;43.27;;;24.87;;
18076;SDS011;9165;45.714;11.362;2024-02-04T10:32:41;48.80;;;24.97;;
18076;SDS011;9165;45.714;11.362;2024-02-04T10:35:08;47.30;;;26.90;;
18076;SDS011;9165;45.714;11.362;2024-02-04T10:37:34;45.87;;;24.60;;
18076;SDS011;9165;45.714;11.362;2024-02-04T10:40:01;40.67;;;23.77;;
18076;SDS011;9165;45.714;11.362;2024-02-04T10:42:29;44.53;;;24.83;;
18076;SDS011;9165;45.714;11.362;2024-02-04T10:44:57;53.37;;;26.27;;
18076;SDS011;9165;45.714;11.362;2024-02-04T10:47:25;47.60;;;26.27;;
18076;SDS011;9165;45.714;11.362;2024-02-04T10:49:58;45.20;;;25.97;;
18076;SDS011;9165;45.714;11.362;2024-02-04T10:52:24;45.30;;;26.27;;
18076;SDS011;9165;45.714;11.362;2024-02-04T10:54:53;47.73;;;26.53;;
18076;SDS011;9165;45.714;11.362;2024-02-04T10:57:20;53.33;;;24.87;;
18076;SDS011;9165;45.714;11.362;2024-02-04T10:59:49;50.17;;;26.57;;
18076;SDS011;9165;45.714;11.362;2024-02-04T11:02:15;47.47;;;26.50;;
18076;SDS011;9165;45.714;11.362;2024-02-04T11:04:42;41.97;;;23.37;;
18076;SDS011;9165;45.714;11.362;2024-02-04T11:07:10;47.37;;;26.83;;
18076;SDS011;9165;45.714;11.362;2024-02-04T11:09:36;46.70;;;26.03;;
18076;SDS011;9165;45.714;11.362;2024-02-04T11:12:03;40.83;;;23.47;;
18076;SDS011;9165;45.714;11.362;2024-02-04T11:14:31;44.37;;;25.60;;
18076;SDS011;9165;45.714;11.362;2024-02-04T11:19:56;45.43;;;23.63;;
18076;SDS011;9165;45.714;11.362;2024-02-04T11:22:45;46.50;;;24.00;;
18076;SDS011;9165;45.714;11.362;2024-02-04T11:25:24;53.97;;;25.67;;
18076;SDS011;9165;45.714;11.362;2024-02-04T11:27:55;48.97;;;23.40;;
18076;SDS011;9165;45.714;11.362;2024-02-04T11:30:22;41.13;;;23.07;;
18076;SDS011;9165;45.714;11.362;2024-02-04T11:32:49;43.77;;;23.60;;
18076;SDS011;9165;45.714;11.362;2024-02-04T11:35:17;44.47;;;24.40;;
18076;SDS011;9165;45.714;11.362;2024-02-04T11:37:46;45.13;;;23.67;;
18076;SDS011;9165;45.714;11.362;2024-02-04T11:40:13;42.70;;;24.30;;
18076;SDS011;9165;45.714;11.362;2024-02-04T11:42:41;44.93;;;24.57;;
18076;SDS011;9165;45.714;11.362;2024-02-04T11:45:08;46.23;;;25.23;;
18076;SDS011;9165;45.714;11.362;2024-02-04T11:47:35;45.43;;;24.00;;
18076;SDS011;9165;45.714;11.362;2024-02-04T11:50:03;44.00;;;24.70;;
18076;SDS011;9165;45.714;11.362;2024-02-04T11:52:31;49.03;;;24.10;;
18076;SDS011;9165;45.714;11.362;2024-02-04T11:54:58;47.60;;;26.45;;
18076;SDS011;9165;45.714;11.362;2024-02-04T11:57:25;48.53;;;25.70;;
18076;SDS011;9165;45.714;11.362;2024-02-04T11:59:52;46.87;;;25.87;;
18076;SDS011;9165;45.714;11.362;2024-02-04T12:02:23;48.60;;;25.77;;
18076;SDS011;9165;45.714;11.362;2024-02-04T12:04:49;46.17;;;26.37;;
18076;SDS011;9165;45.714;11.362;2024-02-04T12:07:18;45.93;;;23.67;;
18076;SDS011;9165;45.714;11.362;2024-02-04T12:09:46;42.60;;;24.73;;
18076;SDS011;9165;45.714;11.362;2024-02-04T12:12:14;46.70;;;26.63;;
18076;SDS011;9165;45.714;11.362;2024-02-04T12:14:40;44.73;;;26.17;;
18076;SDS011;9165;45.714;11.362;2024-02-04T12:17:07;50.90;;;27.57;;
18076;SDS011;9165;45.714;11.362;2024-02-04T12:19:34;48.67;;;27.70;;
18076;SDS011;9165;45.714;11.362;2024-02-04T12:22:01;50.27;;;26.60;;
18076;SDS011;9165;45.714;11.362;2024-02-04T12:24:33;50.80;;;27.20;;
18076;SDS011;9165;45.714;11.362;2024-02-04T12:27:01;48.37;;;27.37;;
18076;SDS011;9165;45.714;11.362;2024-02-04T12:29:28;52.23;;;29.73;;
18076;SDS011;9165;45.714;11.362;2024-02-04T12:31:57;76.57;;;31.10;;
18076;SDS011;9165;45.714;11.362;2024-02-04T12:34:24;50.37;;;31.80;;
18076;SDS011;9165;45.714;11.362;2024-02-04T12:36:56;54.27;;;31.27;;
18076;SDS011;9165;45.714;11.362;2024-02-04T12:39:23;53.80;;;30.97;;
18076;SDS011;9165;45.714;11.362;2024-02-04T12:41:50;59.40;;;33.13;;
18076;SDS011;9165;45.714;11.362;2024-02-04T12:44:19;55.07;;;31.73;;
18076;SDS011;9165;45.714;11.362;2024-02-04T12:46:45;60.50;;;33.50;;
18076;SDS011;9165;45.714;11.362;2024-02-04T12:49:17;55.03;;;31.53;;
18076;SDS011;9165;45.714;11.362;2024-02-04T12:51:44;54.80;;;32.83;;
18076;SDS011;9165;45.714;11.362;2024-02-04T12:54:11;59.50;;;32.67;;
18076;SDS011;9165;45.714;11.362;2024-02-04T12:56:41;57.83;;;33.97;;
18076;SDS011;9165;45.714;11.362;2024-02-04T12:59:08;56.35;;;34.95;;
18076;SDS011;9165;45.714;11.362;2024-02-04T13:01:37;65.43;;;34.97;;
18076;SDS011;9165;45.714;11.362;2024-02-04T13:04:04;54.97;;;33.67;;
18076;SDS011;9165;45.714;11.362;2024-02-04T13:06:30;56.20;;;32.77;;
18076;SDS011;9165;45.714;11.362;2024-02-04T13:08:57;57.67;;;32.53;;
18076;SDS011;9165;45.714;11.362;2024-02-04T13:11:24;58.67;;;33.27;;
18076;SDS011;9165;45.714;11.362;2024-02-04T13:13:50;54.87;;;33.20;;
18076;SDS011;9165;45.714;11.362;2024-02-04T13:16:17;56.90;;;33.17;;
18076;SDS011;9165;45.714;11.362;2024-02-04T13:18:45;56.00;;;33.37;;
18076;SDS011;9165;45.714;11.362;2024-02-04T13:21:17;58.80;;;33.93;;
18076;SDS011;9165;45.714;11.362;2024-02-04T13:23:46;66.80;;;37.17;;
18076;SDS011;9165;45.714;11.362;2024-02-04T13:26:13;58.70;;;34.77;;
18076;SDS011;9165;45.714;11.362;2024-02-04T13:28:39;61.33;;;36.13;;
18076;SDS011;9165;45.714;11.362;2024-02-04T13:31:06;51.80;;;32.87;;
18076;SDS011;9165;45.714;11.362;2024-02-04T13:33:33;60.00;;;34.93;;
18076;SDS011;9165;45.714;11.362;2024-02-04T13:36:01;55.20;;;32.80;;
18076;SDS011;9165;45.714;11.362;2024-02-04T13:38:27;60.50;;;34.10;;
18076;SDS011;9165;45.714;11.362;2024-02-04T13:40:54;60.47;;;33.53;;
18076;SDS011;9165;45.714;11.362;2024-02-04T13:43:20;56.50;;;34.30;;
18076;SDS011;9165;45.714;11.362;2024-02-04T13:45:47;61.27;;;36.40;;
18076;SDS011;9165;45.714;11.362;2024-02-04T13:48:13;61.13;;;34.33;;
18076;SDS011;9165;45.714;11.362;2024-02-04T13:50:40;54.30;;;30.97;;
18076;SDS011;9165;45.714;11.362;2024-02-04T13:53:11;58.40;;;31.50;;
18076;SDS011;9165;45.714;11.362;2024-02-04T13:55:38;63.07;;;33.60;;
18076;SDS011;9165;45.714;11.362;2024-02-04T13:58:05;55.70;;;30.97;;
18076;SDS011;9165;45.714;11.362;2024-02-04T14:00:32;60.63;;;34.77;;
18076;SDS011;9165;45.714;11.362;2024-02-04T14:02:58;55.27;;;32.70;;
18076;SDS011;9165;45.714;11.362;2024-02-04T14:05:25;63.87;;;34.37;;
18076;SDS011;9165;45.714;11.362;2024-02-04T14:07:51;57.90;;;34.40;;
18076;SDS011;9165;45.714;11.362;2024-02-04T14:10:20;62.87;;;35.70;;
18076;SDS011;9165;45.714;11.362;2024-02-04T14:12:46;66.33;;;36.83;;
18076;SDS011;9165;45.714;11.362;2024-02-04T14:15:13;63.73;;;36.50;;
18076;SDS011;9165;45.714;11.362;2024-02-04T14:17:39;61.10;;;34.63;;
18076;SDS011;9165;45.714;11.362;2024-02-04T14:20:06;67.83;;;35.90;;
18076;SDS011;9165;45.714;11.362;2024-02-04T14:22:34;66.57;;;35.70;;